SBSJSBRJ

Guest
Details From SBSJ - Sao Jose Dos Campos
To SBRJ - Santos-Dumont
Flight Number -
Tags generated
Created
Modified
Stats Distance 150 nm / 279 km
Max Altitude 11,100 ft / 3,383 m
Waypoints 3
Social Downloads 4
Likes 0
Share VATSIM

Download

Looking for another format? Having issues loading an existing format? Contact us
Advertisement - Login to hide

Notes

Basic altitude profile: - Ascent Rate: 2500ft/min - Ascent Speed: 250kts - Cruise Altitude: 35000ft - Cruise Speed: 420kts - Descent Rate: 1500ft/min - Descent Speed: 250kts Options: - Use NATs: yes - Use PACOTS: no - Use low airways: yes - Use high airways: no

Route

SBSJ GEDS SBRJ

ID Type Via Altitude Latitude Longitude Leg Dist Tot Dist Heading (true) Name
O SBSJ APT - 0 ft / 0 m -23.22817˚ -45.86274˚ - 0 nm - Sao Jose Dos Campos
GEDS APT - 11,100 ft / 3,383 m -23.05700˚ -44.17400˚ 93 nm 93 nm 84° / 83° -
O SBRJ APT - 0 ft / 0 m -22.91046˚ -43.16313˚ 56 nm 150 nm 81° / 81° Santos-Dumont

Altitude Profile

Advertisement - Login to hide

SBSJ

Details ICAO SBSJ (SJK)
Name Sao Jose Dos Campos
Region Brazil
Timezone America/Sao_Paulo (UTC-2.0)
Stats Elevation 2,120 ft / 646 m (AMSL)
Location -23.228171° -45.862738°
Runways 1
Magnetic Variation 21.708° W

METAR

SBSJ 110500Z 00000KT 9999 SCT020 19/18 Q1009

Decode

TAF

TAF SBSJ 101930Z 1100/1124 09005KT 7000 SCT017 TN18/1108Z TX30/1117Z BECMG 1100/1102 17005KT BECMG 1106/1108 02005KT 4000 BR BKN010 BECMG 1109/1111 10005KT 7000 NSW SCT015 BECMG 1116/1118 15010KT SCT020 FEW025TCU BECMG 1120/1122 08005KT RMK PGZ

Decode

Departure Runways

ID Width Length Bearing (true) Bearing (mag) Surface Threshold Offset Overrun Length
15 148 ft / 45 m 8,741 ft / 2,664 m 135.13° 156.84° Asphalt 0 ft / 0 m 0 ft / 0 m
33 148 ft / 45 m 8,741 ft / 2,664 m 315.12° 336.83° Asphalt 0 ft / 0 m 0 ft / 0 m

SBRJ

Details ICAO SBRJ (SDU)
Name Santos-Dumont
Region Brazil
Timezone Unknown (UTC+0.0)
Stats Elevation 11 ft / 3 m (AMSL)
Location -22.910460° -43.163133°
Runways 2
Magnetic Variation 22.781° W

METAR

SBRJ 110600Z 01005KT CAVOK 23/22 Q1003

Decode

TAF

TAF TAF SBRJ 101930Z 1100/1112 22005KT 9999 SCT020 TN22/1108Z TX25/1112Z BECMG 1100/1102 16005KT 7000 BECMG 1109/1111 04005KT 5000 BR BKN010 RMK PGZ

Decode

Destination Runways

ID Width Length Bearing (true) Bearing (mag) Surface Threshold Offset Overrun Length
02L 98 ft / 30 m 4,154 ft / 1,266 m 358.02° 20.80° Asphalt 0 ft / 0 m 80 ft / 24 m
02R 138 ft / 42 m 4,361 ft / 1,329 m 358.01° 20.79° Asphalt 0 ft / 0 m 80 ft / 24 m
20L 138 ft / 42 m 4,361 ft / 1,329 m 178.01° 200.79° Asphalt 0 ft / 0 m 80 ft / 24 m
20R 98 ft / 30 m 4,154 ft / 1,266 m 178.02° 200.80° Asphalt 0 ft / 0 m 95 ft / 29 m

Approach Navaids

Runway Type Ident Frequency Range Bearing (true) Bearing (mag) Slope Elevation
20L Localiser IRJ 111.10 MHz 18 nm / 33 km 172.42° 195.20° - 11 ft / 3 m (AMSL)

Popular Alternatives